AVIATION WEATHER REPORT

                                                                                                   GENERAL AVIATION FORECAST ST. MAARTEN

 


Meteological Departement St Maarten GENERAL AVIATION FORECAST ST MAARTEN

Date Issued: 19 Aug 2017 Valid Time: 12:00 -24:00Z

AREA OF COVERAGE: TNCM TMA Bounded by:

18.25N 063.39W 17.26N 062.53W

Levels of coverage: MSL to FL100

WNDS/TEMP ALOFT

18.25N 062.51W 17.36N 063.39W

17.47N 062.22W 18.25N 063.39W

SIG. WX

SIG. CLDS

FEW CB 1400-1700 FT ABV FL 100 / BKN TCU BASE 1600-2000 FT

SFC. VIS

10+ KM.

LEVEL WINDS TEMP

0500 FT

100/15KT

+28

1000 FT

100/15KT

+26

2000 FT

100/15KT

+24

3000 FT

100/15KT

+21

FL050

100/15KT

+19

FL080

100/15KT

+14

FL100

100/10KT

+10

FZL

ABOVE FL 100

SPECIAL FEATURES

A TROUGH OF LOW PRESSURE IS APPROACHING THE FORECAST AREA.

TAF

ISOL -SHRA

TNCM 191120Z 1912/2012 08013KT P6SM VCSH SCT018 SCT030 FM192300 11009KT P6SM FEW030

Forecaster

Gordon
 

TAFS:

TNCM 191720Z 1918/2018 10012KT P6SM VCSH SCT018 SCT030
  FM192300 10008KT P6SM FEW030
TAF TAPA 191100Z 1912/2012 09011KT 9999 SCT018
  PROB40 TEMPO 1914/1920 4000 SHRA BKN014
TAF TFFR 191700Z 1918/2018 10010KT 9999 BKN025 BKN040
  TEMPO 1922/2018 3000 SHRA BKN018TCU
  PROB40 TEMPO 2002/2012 VRB15G30KT 1000 TSRA SCT013CB BKN015TCU
TJSJ 191720Z 1918/2018 07015G20KT P6SM VCSH SCT020 BKN040
  FM192300 09010KT P6SM VCSH SCT030 BKN080
  FM200600 11005KT P6SM OVC250
  FM201500 08009KT P6SM VCSH SCT030 BKN100
TAF TXKF 191135Z 1912/2012 27010KT 9999 VCSH FEW015 SCT055 BKN100
  TEMPO 1912/1918 31015G25KT 3200 SHRA BKN010 OVC015
  PROB30 TEMPO 1918/2003 31015G25KT 3200 SHRA BKN010 OVC015
  PROB40 TEMPO 2003/2012 31015G25KT 3200 SHRA BKN010 OVC015
TAF LPAZ 191700Z 1918/2024 22007KT 9999 SCT020
  TEMPO 1918/2024 FEW015 BKN035
  BECMG 1920/1922 VRB05KT
TAF LPLA 191702Z 1918/2018 VRB02KT 9999 FEW020
  BECMG 2006/2009 23012KT
  PROB40 TEMPO 2009/2018 24015G25KT BKN020
17.36N 63.40W and 18.30N 63.40W).
Levels of Coverage: MSL to FL100.
SIG WX: ISOL SHRA.
SIG CLDS: FEW TCU 1000 - 1500FT AND TOPS ABV FL100.
SCT/ BKN LYR SC/AC 2000 - 3500FT AND TOPS ABV FL100.
SFC VIS: 10+ KM, 3 - 7 KM IN SHRA.
FCST WNDS/TEMP ALOFT: 14/ 18:00Z
0500 FT.. 200/10KT +26 FL050.....220/10KT +16
1000 FT.. 200/10KT +24 FL080.....220/05KT +11
2000 FT.. 210/15KT +22 FL100.....200/10KT +08
3000 FT.. 210/15KT +19
FZL: ABV FL100.
SPECIAL FEATURES:
NONE.
TAFS:
TAF TNCM 141200Z 1412/1512 14012KT P6SM VCSH BKN018 BKN035
FM141800 21008KT P6SM VCSH SCT022 SCT050=
Forecaster: DJF.

Save

Save

Save

Save

Save

Save

Save

Save

Save

Save

Save

Save

Save

Save

Save

Save

Save

Save

Save

Save

Save

Save

Save

Save

Save

Save

Save

Save

Save

Save

Save

Save

Save

Save

Save

Save

Save

Save

Save

Save

Save

Save

Save

Save

Save

Save

Save

Save

Save

Save

Save

Save

Save

Save

Save

Save

Save

Save

Save

Save

Save

Save

Save

Save

Save

Save

Save

Save

Save

Save

Save

Save

Save

Save

Save

Save

Save

Save

Save

Save

Save

Save

Save

Save

Save

Save

Save

Save

Save

Save

Save

Save

Save

Save

Save

Save

Save

Save

Save

Save

Save

Save

Save

Save

Save

Save

Save

Save

Save

Save

Save

Save

Save

Save

Save

Save

Save

Save

Save

Save

Save

Save

Save

Save

Save

Save

Save

Save

Save

Save

Save

Save

Save

Save

Save

Save

Save

Save

Save

Download attachments:
Rate this item
(0 votes)

Add comment

Security code
Refresh

International News

Go to top